Main page
METAR-TAF:

METAR-TAF

Airports :

Ahvaz International Airport

Ahvaz, Iran

latitude: 31-20N, longitude: 048-40E, elevation: 20 m

Current weather observation

The report was made 26 minutes ago, at 06:00 UTC
Wind 2 kt from the Southeast
Temperature 15°C
Humidity 82%
Pressure 1021 hPa
Visibility: 5000 m
haze

METAR: OIAW 220600Z 13002KT 5000 HZ NSC 15/12 Q1021

Time: 09:56 (06:26 UTC)

Forecast

The report was made 36 minutes ago, at 05:50 UTC
Forecast valid from 22 at 06 UTC to 23 at 12 UTC
Wind 6 kt from the West
Visibility: 5000 m
mist
Becoming
from 22 at 07 UTC to 22 at 09 UTC
Visibility: 7000 m
Becoming
from 22 at 21 UTC to 22 at 23 UTC
Visibility: 4000 m
Few clouds at a height of 3500 ft
Scattered clouds at a height of 9000 ft
Becoming
from 23 at 05 UTC to 23 at 07 UTC
Visibility: 7000 m
Few clouds at a height of 4000 ft

TAF: OIAW 220550Z 2206/2312 27006KT 5000 BR NSC BECMG 2207/2209 7000 BECMG 2221/2223 4000 HZ/BR FEW035 SCT090 BECMG 2305/2307 7000 FEW040

Weather observations and forecasts of more than 4000 airports (METAR and TAF reports).

The available stations are represented by yellow and red dots on the map.

Hover mouse over dot to see the name of the station.

Then click to see weather observations and forecasts.

To change the map : click on the green buttons with a black cross to zoom in, on the green button with a dash to zoom out, or on the green arrows for adjacent maps.


METAR-TAF: